TimeEST,TemperatureF,Dew PointF,Humidity,Sea Level PressureIn,VisibilityMPH,Wind Direction,Wind SpeedMPH,Gust SpeedMPH,PrecipitationIn,Events,Conditions,WindDirDegrees,DateUTC
12:56 AM,32.0,16.0,52,29.92,10.0,ESE,10.4,-,N/A,,Clear,120,2013-02-19 05:56:00
1:56 AM,32.0,17.1,54,29.90,10.0,ESE,10.4,-,N/A,,Clear,120,2013-02-19 06:56:00
2:56 AM,34.0,17.1,50,29.86,10.0,SE,10.4,-,N/A,,Partly Cloudy,130,2013-02-19 07:56:00
3:56 AM,36.0,18.0,48,29.81,10.0,SSE,9.2,-,N/A,,Mostly Cloudy,150,2013-02-19 08:56:00
5:20 AM,35.6,28.4,75,29.78,2.0,SSW,11.5,21.9,0.01,Snow,Light Snow,210,2013-02-19 10:20:00
5:28 AM,33.8,30.2,87,29.78,1.2,SW,9.2,19.6,0.03,Snow,Light Snow,220,2013-02-19 10:28:00
5:41 AM,32.0,30.2,93,29.77,0.8,South,6.9,-,0.06,Snow,Light Snow,170,2013-02-19 10:41:00
5:48 AM,32.0,30.2,93,29.77,0.8,South,8.1,-,0.08,Snow,Light Snow,170,2013-02-19 10:48:00
5:56 AM,32.0,30.9,96,29.80,0.8,South,8.1,-,0.10,Snow,Light Snow,170,2013-02-19 10:56:00
6:24 AM,33.8,30.2,87,29.73,3.0,SSE,6.9,-,0.04,Snow,Light Snow,150,2013-02-19 11:24:00
6:37 AM,32.0,30.2,93,29.72,1.8,SSE,8.1,-,0.05,Snow,Light Snow,150,2013-02-19 11:37:00
7:24 AM,33.8,30.2,87,29.71,1.2,SSE,6.9,-,0.02,Snow,Light Snow,160,2013-02-19 12:24:00
7:56 AM,33.1,32.0,96,29.74,0.8,SSE,8.1,18.4,0.03,Snow,Light Snow,160,2013-02-19 12:56:00
8:10 AM,33.8,32.0,93,29.69,1.0,SSE,8.1,20.7,0.01,Snow,Light Snow,160,2013-02-19 13:10:00
8:23 AM,33.8,32.0,93,29.69,3.0,SSE,9.2,18.4,0.01,Snow,Light Snow,160,2013-02-19 13:23:00
8:56 AM,33.1,32.0,96,29.72,2.5,SSE,8.1,16.1,0.01,,Overcast,150,2013-02-19 13:56:00
9:07 AM,33.8,32.0,93,29.67,3.0,SE,8.1,-,N/A,,Overcast,140,2013-02-19 14:07:00
9:17 AM,33.8,32.0,93,29.66,1.8,SSE,8.1,-,0.01,Snow,Light Snow,160,2013-02-19 14:17:00
9:39 AM,33.8,32.0,93,29.66,2.0,SSE,9.2,-,0.01,Snow,Light Snow,160,2013-02-19 14:39:00
9:54 AM,33.8,32.0,93,29.65,4.0,SSE,8.1,-,0.02,,Overcast,150,2013-02-19 14:54:00
10:07 AM,33.8,33.8,100,29.65,4.0,South,6.9,-,N/A,,Overcast,170,2013-02-19 15:07:00
10:38 AM,35.6,33.8,93,29.64,8.0,South,6.9,17.3,0.01,,Overcast,170,2013-02-19 15:38:00
10:51 AM,35.6,33.8,93,29.64,8.0,South,8.1,-,0.01,,Overcast,170,2013-02-19 15:51:00
10:56 AM,35.1,34.0,96,29.68,8.0,South,10.4,-,0.01,,Overcast,190,2013-02-19 15:56:00
11:15 AM,37.4,35.6,93,29.63,8.0,Variable,6.9,16.1,N/A,,Overcast,0,2013-02-19 16:15:00
11:40 AM,37.4,35.6,93,29.62,5.0,SSW,11.5,19.6,N/A,,Overcast,200,2013-02-19 16:40:00
11:56 AM,37.0,35.1,93,29.66,2.5,SSW,9.2,18.4,N/A,,Overcast,210,2013-02-19 16:56:00
12:08 PM,37.4,35.6,93,29.61,6.0,SSW,10.4,20.7,N/A,,Overcast,200,2013-02-19 17:08:00
12:56 PM,37.9,35.1,89,29.61,6.0,SSW,9.2,17.3,0.01,,Overcast,200,2013-02-19 17:56:00
1:11 PM,37.4,35.6,93,29.58,1.8,SW,17.3,23.0,0.02,Rain,Light Rain,230,2013-02-19 18:11:00
1:17 PM,37.4,35.6,93,29.58,2.0,WSW,15.0,24.2,0.02,Rain,Light Rain,240,2013-02-19 18:17:00
1:27 PM,37.4,35.6,93,29.58,6.0,SW,17.3,23.0,0.03,,Overcast,230,2013-02-19 18:27:00
1:41 PM,37.4,33.8,87,29.58,10.0,SW,16.1,24.2,0.03,,Overcast,230,2013-02-19 18:41:00
1:56 PM,36.0,34.0,93,29.62,7.0,WSW,23.0,29.9,0.03,,Overcast,240,2013-02-19 18:56:00
2:31 PM,35.6,30.2,81,29.60,10.0,West,18.4,28.8,N/A,,Overcast,260,2013-02-19 19:31:00
2:54 PM,35.6,30.2,81,29.60,10.0,WSW,19.6,27.6,N/A,,Overcast,250,2013-02-19 19:54:00
2:56 PM,35.1,30.0,82,29.64,10.0,WSW,18.4,27.6,N/A,,Mostly Cloudy,250,2013-02-19 19:56:00
3:24 PM,33.8,28.4,81,29.63,8.0,West,21.9,31.1,N/A,,Overcast,260,2013-02-19 20:24:00
3:40 PM,33.8,26.6,75,29.64,10.0,West,15.0,28.8,N/A,,Overcast,260,2013-02-19 20:40:00
3:56 PM,30.9,26.1,82,29.69,5.0,West,23.0,35.7,0.00,Snow,Light Snow,260,2013-02-19 20:56:00
4:09 PM,30.2,24.8,80,29.67,2.5,West,23.0,33.4,0.00,Snow,Light Snow,260,2013-02-19 21:09:00
4:17 PM,30.2,24.8,80,29.67,4.0,West,21.9,28.8,0.00,,Haze,270,2013-02-19 21:17:00
4:24 PM,28.4,23.0,80,29.68,1.8,West,18.4,28.8,0.00,Snow,Light Snow,260,2013-02-19 21:24:00
4:35 PM,28.4,23.0,80,29.68,3.0,West,20.7,28.8,0.00,Snow,Light Snow,260,2013-02-19 21:35:00
4:56 PM,28.9,21.0,72,29.73,5.0,WSW,17.3,31.1,0.00,Snow,Light Snow,250,2013-02-19 21:56:00
5:00 PM,28.4,21.2,74,29.69,2.5,West,20.7,31.1,0.00,Snow,Light Snow,260,2013-02-19 22:00:00
5:03 PM,28.4,21.2,74,29.69,1.5,WSW,20.7,31.1,0.00,Snow,Light Snow,250,2013-02-19 22:03:00
5:08 PM,28.4,21.2,74,29.69,0.8,West,21.9,29.9,0.00,Snow,Light Snow,260,2013-02-19 22:08:00
5:31 PM,26.6,23.0,86,29.70,1.5,West,11.5,-,0.00,Snow,Light Snow,260,2013-02-19 22:31:00
5:35 PM,26.6,23.0,86,29.70,3.0,WSW,13.8,-,0.00,Snow,Light Snow,250,2013-02-19 22:35:00
5:56 PM,28.0,19.9,72,29.77,4.0,West,21.9,32.2,0.00,Snow,Light Snow,260,2013-02-19 22:56:00
7:33 PM,26.6,19.4,74,29.74,10.0,WSW,15.0,20.7,0.00,,Overcast,250,2013-02-20 00:33:00
7:51 PM,24.8,19.4,80,29.75,1.5,WSW,26.5,43.7,0.00,Snow,Light Snow,250,2013-02-20 00:51:00
7:56 PM,25.0,19.0,78,29.81,1.2,WSW,23.0,43.7,0.00,Snow,Light Snow,250,2013-02-20 00:56:00
8:02 PM,24.8,19.4,80,29.75,3.0,WSW,26.5,35.7,0.00,Snow,Light Snow,250,2013-02-20 01:02:00
8:12 PM,24.8,17.6,74,29.75,3.0,West,23.0,35.7,0.00,Snow,Light Snow,260,2013-02-20 01:12:00
8:24 PM,24.8,14.0,64,29.76,9.0,West,27.6,40.3,0.00,,Overcast,280,2013-02-20 01:24:00
9:43 PM,21.2,15.8,80,29.76,2.5,West,16.1,27.6,0.00,Snow,Light Snow,260,2013-02-20 02:43:00
9:50 PM,21.2,15.8,80,29.76,4.0,West,18.4,26.5,0.00,Snow,Light Snow,260,2013-02-20 02:50:00
9:56 PM,21.9,15.1,75,29.82,6.0,WSW,18.4,26.5,0.00,,Haze,250,2013-02-20 02:56:00
10:06 PM,21.2,15.8,80,29.76,4.0,West,20.7,25.3,0.00,Snow,Light Snow,260,2013-02-20 03:06:00
10:44 PM,21.2,14.0,74,29.77,2.0,West,28.8,39.1,0.00,Snow,Light Snow,260,2013-02-20 03:44:00
10:53 PM,21.2,12.2,68,29.77,6.0,WSW,24.2,38.0,0.00,,Haze,250,2013-02-20 03:53:00
10:56 PM,21.0,12.9,71,29.83,7.0,West,24.2,38.0,0.00,Snow,Light Snow,260,2013-02-20 03:56:00
11:11 PM,19.4,10.4,68,29.77,9.0,West,28.8,50.6,0.00,,Overcast,260,2013-02-20 04:11:00
11:56 PM,18.0,10.0,71,29.86,9.0,West,20.7,29.9,0.00,,Overcast,260,2013-02-20 04:56:00